Whiteville, NC

7:05 AM EST on March 04, 2015 (GMT -0500)
Columbus County Municipal | Change Station
CLOSE
Current Station
Airport
Location: Whiteville,
Elevation: 98 ft
Nearby Weather Stations
Active Advisory: Dense Fog Advisory

Elev 98 ft 34.28 °N, 78.71 °W | Updated 15 minutes ago

Overcast
Overcast
57 °F
Feels Like 57 °F
N
8
Wind Variable Wind from SSW

Today
High -- | Low -- °F
--% Chance of Precip.
Yesterday
High -- | Low -- °F
Precip. -- in
6:40 AM 6:13 PM
Waxing Gibbous, 99% visible
Pressure 30.07 in
Visibility 10.0 miles
Clouds Overcast 400 ft
Dew Point 56 °F
Humidity 97%
Rainfall 0.05 in
Snow Depth Not available.
UV 0 out of 12
Pollen 3.20 out of 12
Air Quality Not available.
Flu Activity Not available.
METAR KCPC 041150Z AUTO 21007KT 10SM OVC004 14/14 A3007 RMK AO2 P0001 60003 70008 T01400135 10141 20061

More Conditions Fewer Conditions

Pressure 30.07 in
Visibility 10.0 miles
Clouds Overcast 400 ft
Dew Point 56 °F
Humidity 97%
Rainfall 0.05 in
Snow Depth Not available.
UV 0 out of 12
Pollen 3.20 out of 12
Air Quality Not available.
Flu Activity Not available.
METAR KCPC 041150Z AUTO 21007KT 10SM OVC004 14/14 A3007 RMK AO2 P0001 60003 70008 T01400135 10141 20061

More Conditions Fewer Conditions

10-Day Weather Forecast

Almanac

Astronomy

Mar. 04, 2015 Rise Set
Actual Time
Civil Twilight
Nautical Twilight
Astronomical Twilight
Moon
Length of Visible Light
Length of Day
Tomorrow will be .
, % of the Moon is Illuminated

Today's Extremes

State Highs State Lows

Community

WunderPhotos

Upload Photos

1,802,436 photos uploaded!

WunderBlogs® & News

Nearby

Air Quality

  Air Quality AQ Index Pollutant
Not available.

Snow Depth

Station Depth Elevation

Earthquake Activity

City Distance Mag. Time & Date
Minimum magnitude displayed is 2.5.

Coastal Water Temperatures

Place Temperature

Nearby Weather Stations

Dense Fog Advisory
Statement as of 3:29 AM EST on March 04, 2015

... Dense fog advisory remains in effect until 9 am EST this
morning...

* visibilities... one quarter mile or less at times.

* Timing... through 9 am.

* Visibility... one-quarter mile at times.

* Impacts... hazardous driving conditions.

Precautionary/preparedness actions...

Visibilities will frequently be reduced to less than one quarter
mile. If driving... slow down... use your low beam headlights... and
leave plenty of distance ahead of you.